createdAt,value
2018-04-19T00:01:59.153Z,23.43
2018-04-19T00:04:27.438Z,19.90
2018-04-19T00:06:55.710Z,25.57
2018-04-19T00:09:23.994Z,20.60
2018-04-19T00:11:51.511Z,22.57
2018-04-19T00:14:19.043Z,18.77
2018-04-19T00:16:46.562Z,22.83
2018-04-19T00:19:14.839Z,25.90
2018-04-19T00:21:43.141Z,26.13
2018-04-19T00:24:10.648Z,22.37
2018-04-19T00:26:38.152Z,28.97
2018-04-19T00:29:05.687Z,25.70
2018-04-19T00:31:33.250Z,23.20
2018-04-19T00:34:00.765Z,23.33
2018-04-19T00:36:28.506Z,24.23
2018-04-19T00:38:56.022Z,26.87
2018-04-19T00:41:23.551Z,26.07
2018-04-19T00:43:51.066Z,22.80
2018-04-19T00:46:20.261Z,24.60
2018-04-19T00:48:47.762Z,24.80
2018-04-19T00:51:15.261Z,23.67
2018-04-19T00:53:43.562Z,22.47
2018-04-19T00:56:11.086Z,22.07
2018-04-19T00:58:38.618Z,27.57
2018-04-19T01:01:06.134Z,22.90
2018-04-19T01:03:34.423Z,25.73
2018-04-19T01:06:02.705Z,25.03
2018-04-19T01:08:30.225Z,27.93
2018-04-19T01:10:57.734Z,31.23
2018-04-19T01:13:25.246Z,22.63
2018-04-19T01:15:52.776Z,21.90
2018-04-19T01:18:20.281Z,22.53
2018-04-19T01:20:48.562Z,23.87
2018-04-19T01:23:16.086Z,23.30
2018-04-19T01:25:43.609Z,24.63
2018-04-19T01:28:11.113Z,24.07
2018-04-19T01:30:38.624Z,25.10
2018-04-19T01:33:06.162Z,27.73
2018-04-19T01:35:46.345Z,24.93
2018-04-19T01:38:13.858Z,27.90
2018-04-19T01:40:41.377Z,29.30
2018-04-19T01:43:08.897Z,28.50
2018-04-19T01:45:37.163Z,26.77
2018-04-19T01:48:04.663Z,26.33
2018-04-19T01:50:32.179Z,28.13
2018-04-19T01:52:59.686Z,25.07
2018-04-19T01:55:27.978Z,28.00
2018-04-19T01:57:55.488Z,26.43
2018-04-19T02:00:23.782Z,25.50
2018-04-19T02:02:51.289Z,24.70
2018-04-19T02:05:18.809Z,25.50
2018-04-19T02:07:46.316Z,27.73
2018-04-19T02:10:13.843Z,27.73
2018-04-19T02:12:41.380Z,25.43
2018-04-19T02:15:08.892Z,23.80
2018-04-19T02:17:36.417Z,28.87
2018-04-19T02:20:03.926Z,24.37
2018-04-19T02:22:31.457Z,27.87
2018-04-19T02:24:58.962Z,24.40
2018-04-19T02:27:26.475Z,26.90
2018-04-19T02:29:53.977Z,25.30
2018-04-19T02:32:22.473Z,28.70
2018-04-19T02:34:49.997Z,27.80
2018-04-19T02:37:17.497Z,25.60
2018-04-19T02:39:45.019Z,30.80
2018-04-19T02:42:12.513Z,25.60
2018-04-19T02:44:40.045Z,25.83
2018-04-19T02:47:07.547Z,25.07
2018-04-19T02:49:35.083Z,27.47
2018-04-19T02:52:03.362Z,29.30
2018-04-19T02:54:31.654Z,24.93
2018-04-19T02:56:59.167Z,24.23
2018-04-19T02:59:26.692Z,25.03
2018-04-19T03:01:54.210Z,22.57
2018-04-19T03:04:22.480Z,24.20
2018-04-19T03:06:50.006Z,25.87
2018-04-19T03:09:17.516Z,21.57
2018-04-19T03:11:45.802Z,25.80
2018-04-19T03:14:13.307Z,25.00
2018-04-19T03:16:40.819Z,19.43
2018-04-19T03:19:08.320Z,28.40
2018-04-19T03:21:35.840Z,22.77
2018-04-19T03:24:03.352Z,24.80
2018-04-19T03:26:30.895Z,25.20
2018-04-19T03:28:58.450Z,18.77
2018-04-19T03:31:26.684Z,21.00
2018-04-19T03:33:54.995Z,22.13
2018-04-19T03:36:22.498Z,23.50
2018-04-19T03:38:50.021Z,27.37
2018-04-19T03:41:17.535Z,22.30
2018-04-19T03:43:45.841Z,25.47
2018-04-19T03:46:13.345Z,25.80
2018-04-19T03:48:40.864Z,26.80
2018-04-19T03:51:08.357Z,22.60
2018-04-19T03:53:35.862Z,25.13
2018-04-19T03:56:04.202Z,25.30
2018-04-19T03:58:31.703Z,23.80
2018-04-19T04:00:59.233Z,23.70
2018-04-19T04:03:26.731Z,25.23
2018-04-19T04:05:54.261Z,26.60
2018-04-19T04:08:21.770Z,26.67
2018-04-19T04:10:49.283Z,21.60
2018-04-19T04:13:16.778Z,28.47
2018-04-19T04:15:44.285Z,23.73
2018-04-19T04:18:23.484Z,25.57
2018-04-19T04:21:02.893Z,27.03
2018-04-19T04:23:47.147Z,24.47
2018-04-19T04:26:14.662Z,24.57
2018-04-19T04:28:42.179Z,25.27
2018-04-19T04:31:09.757Z,23.87
2018-04-19T04:33:37.229Z,25.87
2018-04-19T04:36:04.743Z,28.10
2018-04-19T04:38:32.309Z,23.80
2018-04-19T04:40:59.810Z,24.93
2018-04-19T04:43:27.330Z,24.33
2018-04-19T04:45:54.846Z,26.13
2018-04-19T04:48:22.361Z,22.70
2018-04-19T04:50:49.878Z,25.50
2018-04-19T04:53:18.157Z,26.27
2018-04-19T04:55:45.699Z,25.70
2018-04-19T04:58:13.199Z,26.10
2018-04-19T05:00:40.778Z,27.27
2018-04-19T05:03:09.257Z,27.40
2018-04-19T05:05:36.762Z,24.73
2018-04-19T05:08:04.278Z,27.73
2018-04-19T05:10:31.786Z,23.20
2018-04-19T05:12:59.302Z,23.70
2018-04-19T05:15:28.084Z,24.70
2018-04-19T05:17:55.617Z,24.63
2018-04-19T05:20:23.182Z,25.00
2018-04-19T05:22:51.050Z,27.33
2018-04-19T05:25:19.320Z,25.27
2018-04-19T05:27:47.577Z,22.80
2018-04-19T05:30:15.093Z,25.50
2018-04-19T05:32:42.592Z,27.97
2018-04-19T05:35:10.109Z,29.70
2018-04-19T05:37:37.609Z,26.63
2018-04-19T05:40:05.155Z,25.73
2018-04-19T05:42:32.654Z,29.43
2018-04-19T05:45:00.967Z,29.00
2018-04-19T05:47:28.480Z,32.40
2018-04-19T05:49:55.982Z,28.27
2018-04-19T05:52:23.523Z,25.83
2018-04-19T05:54:51.801Z,27.83
2018-04-19T05:57:19.317Z,34.97
2018-04-19T05:59:46.818Z,26.50
2018-04-19T06:02:15.071Z,30.17
2018-04-19T06:04:43.379Z,23.83
2018-04-19T06:07:11.265Z,23.87
2018-04-19T06:09:39.542Z,28.10
2018-04-19T06:12:07.035Z,25.03
2018-04-19T06:14:34.601Z,22.00
2018-04-19T06:17:02.133Z,24.13
2018-04-19T06:19:30.823Z,21.23
2018-04-19T06:22:03.411Z,27.10
2018-04-19T06:24:31.866Z,24.13
2018-04-19T06:26:59.515Z,30.33
2018-04-19T06:29:27.044Z,23.07
2018-04-19T06:31:54.554Z,24.40
2018-04-19T06:34:22.185Z,24.07
2018-04-19T06:36:49.946Z,25.17
2018-04-19T06:39:17.464Z,22.80
2018-04-19T06:41:44.967Z,23.03
2018-04-19T06:44:13.241Z,26.33
2018-04-19T06:46:41.519Z,20.67
2018-04-19T06:49:09.815Z,18.47
2018-04-19T06:51:37.325Z,23.20
2018-04-19T06:54:04.821Z,25.17
2018-04-19T06:56:32.337Z,22.40
2018-04-19T06:58:59.846Z,25.43
2018-04-19T07:01:27.365Z,22.57
2018-04-19T07:03:54.870Z,23.50
2018-04-19T07:06:22.370Z,25.30
2018-04-19T07:08:49.889Z,15.90
2018-04-19T07:11:17.390Z,16.17
2018-04-19T07:13:44.918Z,25.43
2018-04-19T07:16:12.422Z,16.37
2018-04-19T07:18:39.922Z,20.67
2018-04-19T07:21:07.442Z,16.00
2018-04-19T07:23:34.943Z,17.20
2018-04-19T07:26:02.473Z,19.53
2018-04-19T07:28:29.982Z,23.73
2018-04-19T07:30:57.527Z,21.53
2018-04-19T07:33:25.050Z,21.33
2018-04-19T07:35:52.541Z,18.70
2018-04-19T07:38:20.063Z,25.43
2018-04-19T07:40:47.566Z,18.67
2018-04-19T07:43:15.089Z,18.20
2018-04-19T07:45:43.388Z,17.37
2018-04-19T07:48:11.654Z,20.33
2018-04-19T07:50:39.921Z,15.40
2018-04-19T07:53:07.423Z,16.13
2018-04-19T07:55:34.933Z,16.90
2018-04-19T07:58:02.439Z,19.40
2018-04-19T08:00:29.950Z,14.33
2018-04-19T08:02:57.463Z,16.50
2018-04-19T08:05:25.825Z,14.27
2018-04-19T08:07:53.301Z,17.60
2018-04-19T08:10:20.790Z,12.43
2018-04-19T08:12:48.286Z,12.63
2018-04-19T08:15:15.849Z,16.23
2018-04-19T08:17:44.117Z,17.20
2018-04-19T08:20:11.638Z,14.47
2018-04-19T08:22:39.139Z,18.57
2018-04-19T08:25:07.422Z,15.20
2018-04-19T08:27:35.678Z,16.70
2018-04-19T08:30:03.191Z,14.03
2018-04-19T08:32:30.752Z,13.60
2018-04-19T08:34:59.812Z,12.30
2018-04-19T08:37:27.440Z,12.73
2018-04-19T08:39:55.807Z,16.57
2018-04-19T08:42:23.383Z,11.33
2018-04-19T08:44:50.905Z,13.53
2018-04-19T08:47:18.404Z,11.03
2018-04-19T08:49:45.920Z,10.27
2018-04-19T08:52:13.405Z,12.03
2018-04-19T08:54:42.079Z,9.90
2018-04-19T08:57:10.279Z,11.10
2018-04-19T08:59:37.803Z,12.93
2018-04-19T09:02:06.131Z,13.17
2018-04-19T09:04:33.625Z,12.77
2018-04-19T09:07:01.170Z,13.73
2018-04-19T09:09:29.440Z,8.90
2018-04-19T09:11:56.966Z,8.23
2018-04-19T09:14:24.479Z,10.90
2018-04-19T09:16:52.757Z,11.20
2018-04-19T09:19:21.020Z,9.80
2018-04-19T09:21:49.329Z,8.80
2018-04-19T09:24:16.870Z,10.93
2018-04-19T09:26:45.222Z,10.80
2018-04-19T09:29:12.953Z,8.77
2018-04-19T09:31:40.452Z,8.30
2018-04-19T09:34:07.993Z,7.80
2018-04-19T09:36:35.470Z,9.80
2018-04-19T09:39:02.961Z,9.90
2018-04-19T09:41:30.467Z,9.00
2018-04-19T09:43:57.980Z,9.23
2018-04-19T09:46:25.475Z,7.97
2018-04-19T09:48:53.004Z,6.80
2018-04-19T09:51:23.304Z,7.90
2018-04-19T09:53:51.985Z,9.00
2018-04-19T09:56:19.478Z,8.87
2018-04-19T10:01:52.048Z,6.33
2018-04-19T10:04:26.579Z,9.10
2018-04-19T10:06:54.964Z,4.60
2018-04-19T10:09:23.725Z,6.53
2018-04-19T10:11:51.321Z,6.03
2018-04-19T10:14:18.866Z,9.90
2018-04-19T10:16:47.214Z,4.57
2018-04-19T10:19:16.431Z,4.23
2018-04-19T10:21:43.993Z,5.43
2018-04-19T10:24:12.879Z,7.17
2018-04-19T10:26:41.121Z,9.13
2018-04-19T10:29:08.646Z,5.57
2018-04-19T10:31:36.942Z,6.57
2018-04-19T10:34:05.202Z,9.70
2018-04-19T10:36:33.460Z,9.90
2018-04-19T10:39:01.953Z,8.50
2018-04-19T10:41:30.311Z,6.10
2018-04-19T10:43:57.807Z,7.23
2018-04-19T10:46:25.315Z,5.20
2018-04-19T10:48:52.824Z,8.20
2018-04-19T10:51:20.350Z,5.83
2018-04-19T10:53:48.067Z,5.60
2018-04-19T10:56:15.596Z,8.07
2018-04-19T10:58:43.078Z,5.43
2018-04-19T11:01:10.575Z,7.67
2018-04-19T11:03:38.126Z,6.10
2018-04-19T11:06:05.619Z,7.00
2018-04-19T11:08:33.915Z,5.50
2018-04-19T11:11:01.426Z,10.00
2018-04-19T11:13:28.950Z,6.47
2018-04-19T11:15:56.508Z,7.90
2018-04-19T11:18:23.957Z,8.80
2018-04-19T11:20:51.470Z,9.50
2018-04-19T11:23:18.961Z,6.30
2018-04-19T11:25:47.236Z,7.17
2018-04-19T11:28:15.518Z,7.83
2018-04-19T11:30:43.802Z,10.27
2018-04-19T11:33:12.066Z,8.00
2018-04-19T11:35:40.323Z,7.13
2018-04-19T11:38:07.836Z,8.30
2018-04-19T11:40:35.333Z,9.33
2018-04-19T11:43:02.855Z,11.87
2018-04-19T11:45:30.622Z,11.13
2018-04-19T11:47:58.160Z,6.87
2018-04-19T11:50:26.433Z,13.40
2018-04-19T11:52:54.691Z,9.97
2018-04-19T11:55:22.208Z,12.00
2018-04-19T11:57:49.702Z,10.93
2018-04-19T12:00:17.222Z,9.77
2018-04-19T12:02:44.760Z,14.47
2018-04-19T12:05:12.286Z,12.10
2018-04-19T12:07:39.837Z,11.67
2018-04-19T12:10:07.324Z,11.67
2018-04-19T12:12:35.607Z,9.90
2018-04-19T12:15:03.878Z,11.40
2018-04-19T12:17:32.163Z,10.00
2018-04-19T12:19:59.671Z,13.33
2018-04-19T12:22:27.217Z,12.20
2018-04-19T12:24:54.715Z,13.03
2018-04-19T12:27:24.099Z,11.13
2018-04-19T12:29:51.664Z,11.67
2018-04-19T12:32:19.172Z,14.47
2018-04-19T12:34:46.689Z,15.30
2018-04-19T12:37:14.206Z,9.50
2018-04-19T12:39:41.714Z,18.10
2018-04-19T12:42:09.207Z,14.30
2018-04-19T12:44:37.461Z,12.13
2018-04-19T12:47:04.971Z,14.20
2018-04-19T12:49:32.470Z,15.83
2018-04-19T12:51:59.996Z,12.40
2018-04-19T12:54:27.494Z,13.60
2018-04-19T12:56:55.023Z,20.03
2018-04-19T12:59:22.517Z,15.53
2018-04-19T13:01:50.774Z,15.63
2018-04-19T13:04:18.338Z,12.17
2018-04-19T13:06:45.846Z,13.90
2018-04-19T13:09:13.383Z,18.03
2018-04-19T13:11:41.633Z,15.77
2018-04-19T13:14:09.141Z,13.30
2018-04-19T13:16:36.626Z,16.87
2018-04-19T13:19:04.114Z,15.80
2018-04-19T13:21:31.636Z,21.17
2018-04-19T13:23:59.140Z,21.03
2018-04-19T13:26:26.658Z,16.73
2018-04-19T13:28:54.150Z,13.37
2018-04-19T13:31:21.678Z,15.70
2018-04-19T13:33:49.179Z,19.37
2018-04-19T13:36:16.684Z,14.87
2018-04-19T13:38:44.211Z,22.70
2018-04-19T13:41:11.738Z,17.00
2018-04-19T13:43:39.266Z,17.90
2018-04-19T13:46:06.762Z,19.03
2018-04-19T13:48:34.280Z,14.00
2018-04-19T13:51:01.766Z,18.27
2018-04-19T13:53:29.266Z,18.87
2018-04-19T13:55:57.545Z,20.50
2018-04-19T13:58:25.795Z,15.87
2018-04-19T14:00:53.317Z,16.00
2018-04-19T14:03:20.827Z,19.03
2018-04-19T14:05:48.379Z,23.43
2018-04-19T14:08:15.863Z,18.27
2018-04-19T14:10:44.140Z,19.07
2018-04-19T14:13:12.442Z,17.70
2018-04-19T14:15:39.960Z,16.20
2018-04-19T14:18:07.467Z,19.10
2018-04-19T14:20:34.975Z,16.90
2018-04-19T14:23:02.494Z,21.03
2018-04-19T14:25:30.001Z,18.57
2018-04-19T14:27:57.509Z,17.33
2018-04-19T14:30:25.038Z,17.10
2018-04-19T14:32:53.316Z,19.80
2018-04-19T14:35:21.612Z,18.20
2018-04-19T14:37:49.113Z,23.00
2018-04-19T14:40:16.628Z,18.93
2018-04-19T14:42:44.132Z,22.10
2018-04-19T14:45:11.642Z,15.27
2018-04-19T14:47:39.161Z,24.77
2018-04-19T14:50:06.687Z,22.50
2018-04-19T14:52:34.229Z,23.17
2018-04-19T14:55:01.719Z,23.47
2018-04-19T14:57:29.302Z,16.13
2018-04-19T14:59:56.806Z,16.73
2018-04-19T15:02:24.318Z,21.67
2018-04-19T15:04:51.846Z,19.50
2018-04-19T15:07:19.365Z,17.80
2018-04-19T15:09:47.654Z,15.67
2018-04-19T15:12:15.149Z,23.43
2018-04-19T15:14:42.680Z,13.50
2018-04-19T15:17:10.181Z,18.97
2018-04-19T15:19:37.679Z,19.90
2018-04-19T15:22:05.965Z,15.83
2018-04-19T15:24:33.470Z,18.70
2018-04-19T15:27:00.996Z,16.13
2018-04-19T15:29:28.494Z,16.63
2018-04-19T15:31:56.048Z,19.67
2018-04-19T15:34:23.550Z,19.27
2018-04-19T15:36:51.062Z,17.30
2018-04-19T15:39:18.587Z,17.77
2018-04-19T15:41:46.117Z,16.07
2018-04-19T15:44:13.630Z,18.23
2018-04-19T15:46:41.191Z,13.23
2018-04-19T15:49:08.710Z,14.40
2018-04-19T15:51:36.974Z,13.70
2018-04-19T15:54:04.467Z,15.03
2018-04-19T15:56:32.037Z,19.50
2018-04-19T15:58:59.537Z,11.97
2018-04-19T16:01:27.014Z,12.87
2018-04-19T16:03:54.509Z,13.40
2018-04-19T16:06:22.044Z,16.13
2018-04-19T16:08:50.331Z,12.17
2018-04-19T16:11:19.103Z,12.00
2018-04-19T16:13:46.602Z,12.33
2018-04-19T16:16:14.104Z,19.50
2018-04-19T16:18:41.623Z,14.80
2018-04-19T16:21:09.338Z,15.87
2018-04-19T16:23:36.903Z,16.77
2018-04-19T16:26:05.189Z,21.23
2018-04-19T16:28:33.464Z,15.80
2018-04-19T16:31:01.767Z,13.73
2018-04-19T16:33:29.299Z,17.97
2018-04-19T16:35:56.815Z,17.67
2018-04-19T16:38:24.326Z,15.47
2018-04-19T16:40:52.639Z,16.40
2018-04-19T16:43:20.130Z,11.07
2018-04-19T16:45:47.641Z,12.83
2018-04-19T16:48:15.166Z,19.17
2018-04-19T16:50:43.445Z,15.30
2018-04-19T16:53:10.979Z,11.17
2018-04-19T16:55:38.528Z,11.67
2018-04-19T16:58:06.074Z,12.60
2018-04-19T17:00:33.597Z,14.40
2018-04-19T17:03:01.857Z,8.50
2018-04-19T17:05:29.377Z,8.90
2018-04-19T17:07:56.884Z,10.20
2018-04-19T17:10:25.166Z,9.27
2018-04-19T17:12:53.455Z,10.03
2018-04-19T17:15:20.969Z,16.97
2018-04-19T17:17:48.670Z,8.03
2018-04-19T17:20:16.169Z,10.20
2018-04-19T17:22:43.686Z,8.80
2018-04-19T17:25:11.946Z,8.23
2018-04-19T17:27:39.452Z,11.33
2018-04-19T17:30:06.962Z,11.83
2018-04-19T17:32:34.508Z,11.70
2018-04-19T17:35:02.006Z,11.73
2018-04-19T17:37:30.288Z,10.73
2018-04-19T17:39:58.582Z,10.77
2018-04-19T17:42:26.086Z,10.47
2018-04-19T17:44:53.594Z,7.70
2018-04-19T17:47:21.090Z,13.40
2018-04-19T17:49:48.598Z,6.73
2018-04-19T17:52:16.869Z,5.77
2018-04-19T17:54:45.138Z,7.60
2018-04-19T17:57:12.654Z,15.87
2018-04-19T17:59:40.145Z,14.70
2018-04-19T18:02:07.672Z,10.40
2018-04-19T18:04:35.186Z,10.53
2018-04-19T18:07:03.485Z,16.83
2018-04-19T18:09:30.986Z,9.03
2018-04-19T18:11:58.494Z,20.93
2018-04-19T18:14:26.783Z,9.47
2018-04-19T18:16:54.301Z,8.90
2018-04-19T18:19:21.826Z,10.90
2018-04-19T18:21:49.335Z,11.27
2018-04-19T18:24:17.624Z,9.10
2018-04-19T18:26:45.891Z,8.10
2018-04-19T18:29:14.154Z,13.20
2018-04-19T18:31:41.802Z,8.07
2018-04-19T18:34:09.413Z,9.20
2018-04-19T18:36:36.935Z,9.77
2018-04-19T18:39:04.451Z,10.77
2018-04-19T18:41:31.981Z,12.50
2018-04-19T18:44:00.345Z,11.03
2018-04-19T18:46:28.612Z,14.90
2018-04-19T18:48:56.160Z,14.07
2018-04-19T18:51:23.679Z,10.07
2018-04-19T18:53:51.560Z,10.57
2018-04-19T18:56:19.119Z,13.30
2018-04-19T18:58:46.673Z,12.13
2018-04-19T19:01:18.805Z,13.20
2018-04-19T19:03:47.107Z,12.80
2018-04-19T19:06:42.034Z,10.17
2018-04-19T19:29:22.729Z,18.30
2018-04-19T19:31:50.277Z,17.43
2018-04-19T19:34:18.558Z,11.63
2018-04-19T19:36:47.060Z,12.80
2018-04-19T19:39:15.391Z,17.57
2018-04-19T19:41:42.970Z,12.70
2018-04-19T19:44:10.581Z,17.30
2018-04-19T19:46:38.136Z,23.00
2018-04-19T19:49:05.727Z,18.23
2018-04-19T19:51:35.471Z,14.03
2018-04-19T19:54:06.260Z,14.13
2018-04-19T19:56:33.830Z,12.90
2018-04-19T19:59:01.412Z,13.07
2018-04-19T20:01:28.956Z,14.40
2018-04-19T20:03:56.518Z,12.83
2018-04-19T20:06:24.107Z,13.47
2018-04-19T20:08:51.676Z,14.10
2018-04-19T20:11:19.217Z,13.33
2018-04-19T20:13:47.499Z,13.10
2018-04-19T20:16:15.067Z,12.57
2018-04-19T20:18:42.583Z,14.70
2018-04-19T20:21:10.147Z,12.13
2018-04-19T20:23:37.742Z,12.27
2018-04-19T20:26:05.350Z,13.40
2018-04-19T20:28:33.719Z,11.60
2018-04-19T20:31:01.260Z,12.37
2018-04-19T20:33:28.825Z,11.40
2018-04-19T20:35:56.419Z,10.77
2018-04-19T20:38:23.933Z,14.63
2018-04-19T20:40:52.214Z,10.40
2018-04-19T20:43:19.743Z,14.03
2018-04-19T20:45:47.333Z,14.03
2018-04-19T20:48:14.905Z,13.40
2018-04-19T20:50:42.507Z,13.23
2018-04-19T20:53:10.085Z,15.30
2018-04-19T20:55:37.627Z,18.53
2018-04-19T20:58:05.251Z,12.57
2018-04-19T21:00:32.751Z,11.70
2018-04-19T21:03:00.350Z,10.70
2018-04-19T21:05:27.996Z,14.57
2018-04-19T21:07:55.543Z,14.23
2018-04-19T21:10:23.119Z,12.37
2018-04-19T21:12:50.635Z,13.60
2018-04-19T21:15:18.181Z,14.33
2018-04-19T21:17:45.732Z,10.20
2018-04-19T21:20:13.316Z,18.53
2018-04-19T21:22:40.876Z,10.40
2018-04-19T21:25:15.027Z,11.27
2018-04-19T21:27:42.612Z,12.30
2018-04-19T21:30:10.201Z,13.13
2018-04-19T21:32:38.558Z,11.57
2018-04-19T21:35:06.187Z,12.80
2018-04-19T21:37:34.507Z,9.17
2018-04-19T21:40:02.017Z,14.23
2018-04-19T21:42:29.544Z,11.70
2018-04-19T21:44:57.056Z,16.00
2018-04-19T21:47:24.574Z,9.03
2018-04-19T21:49:52.103Z,12.43
2018-04-19T21:52:19.610Z,11.33
2018-04-19T21:54:47.153Z,11.13
2018-04-19T21:57:14.645Z,14.30
2018-04-19T21:59:42.172Z,17.00
2018-04-19T22:02:09.673Z,15.63
2018-04-19T22:04:37.193Z,12.87
2018-04-19T22:07:04.694Z,14.77
2018-04-19T22:09:32.198Z,11.33
2018-04-19T22:11:59.719Z,8.63
2018-04-19T22:14:27.220Z,15.37
2018-04-19T22:16:54.744Z,13.53
2018-04-19T22:19:22.256Z,13.57
2018-04-19T22:21:49.786Z,14.30
2018-04-19T22:24:17.285Z,13.87
2018-04-19T22:26:44.815Z,19.23
2018-04-19T22:29:13.095Z,15.50
2018-04-19T22:31:40.618Z,11.70
2018-04-19T22:34:08.915Z,9.07
2018-04-19T22:36:36.418Z,13.50
2018-04-19T22:39:03.943Z,19.33
2018-04-19T22:41:31.459Z,11.80
2018-04-19T22:43:58.959Z,16.53
2018-04-19T22:46:26.499Z,13.00
2018-04-19T22:48:54.011Z,13.30
2018-04-19T22:51:21.531Z,12.03
2018-04-19T22:53:49.035Z,12.77
2018-04-19T22:56:16.562Z,13.27
2018-04-19T22:58:44.086Z,15.20
2018-04-19T23:01:12.367Z,15.40
2018-04-19T23:03:40.665Z,9.83
2018-04-19T23:06:08.183Z,10.07
2018-04-19T23:08:35.706Z,12.20
2018-04-19T23:11:03.216Z,17.13
2018-04-19T23:13:30.763Z,12.33
2018-04-19T23:15:59.063Z,10.63
2018-04-19T23:18:27.323Z,11.93
2018-04-19T23:20:54.850Z,12.30
2018-04-19T23:23:22.369Z,21.33
2018-04-19T23:25:49.894Z,10.57
2018-04-19T23:28:17.394Z,14.13
2018-04-19T23:30:44.921Z,11.80
2018-04-19T23:33:12.432Z,13.77
2018-04-19T23:35:39.921Z,9.23
2018-04-19T23:38:07.434Z,11.40
2018-04-19T23:40:34.935Z,14.97
2018-04-19T23:43:02.469Z,12.43
2018-04-19T23:45:29.970Z,10.40
2018-04-19T23:47:57.499Z,13.97
2018-04-19T23:50:24.996Z,13.13
2018-04-19T23:52:52.501Z,15.70
2018-04-19T23:55:20.035Z,12.47
2018-04-19T23:57:48.310Z,15.30
